createdAt,value
2018-09-02T00:01:20.127Z,12.90
2018-09-02T00:06:23.287Z,12.96
2018-09-02T00:11:26.931Z,13.04
2018-09-02T00:16:30.202Z,13.18
2018-09-02T00:21:33.536Z,13.27
2018-09-02T00:26:36.807Z,13.42
2018-09-02T00:31:39.988Z,13.76
2018-09-02T00:36:43.170Z,13.93
2018-09-02T00:41:46.324Z,14.12
2018-09-02T00:46:49.525Z,14.28
2018-09-02T00:51:52.822Z,14.68
2018-09-02T00:56:56.190Z,15.15
2018-09-02T01:01:59.421Z,15.16
2018-09-02T01:07:02.897Z,15.12
2018-09-02T01:12:06.187Z,15.03
2018-09-02T01:17:09.696Z,15.28
2018-09-02T01:22:13.217Z,15.39
2018-09-02T01:27:16.474Z,15.40
2018-09-02T01:32:19.630Z,15.30
2018-09-02T01:37:22.772Z,15.11
2018-09-02T01:42:26.038Z,14.84
2018-09-02T01:47:29.214Z,14.76
2018-09-02T01:52:32.397Z,14.95
2018-09-02T01:57:35.675Z,15.01
2018-09-02T02:02:39.127Z,14.94
2018-09-02T02:07:42.509Z,14.85
2018-09-02T02:12:45.785Z,14.99
2018-09-02T02:17:49.049Z,15.16
2018-09-02T02:22:52.166Z,15.20
2018-09-02T02:27:55.486Z,15.11
2018-09-02T02:32:58.757Z,15.14
2018-09-02T02:38:02.202Z,15.08
2018-09-02T02:43:05.518Z,15.13
2018-09-02T02:48:09.037Z,15.09
2018-09-02T02:53:12.317Z,14.99
2018-09-02T02:58:15.715Z,14.99
2018-09-02T03:03:18.905Z,15.05
2018-09-02T03:08:22.083Z,15.15
2018-09-02T03:13:25.244Z,15.15
2018-09-02T03:18:28.458Z,15.13
2018-09-02T03:23:31.702Z,15.04
2018-09-02T03:28:36.232Z,14.95
2018-09-02T03:33:39.561Z,14.83
2018-09-02T03:38:42.963Z,14.84
2018-09-02T03:43:46.319Z,14.77
2018-09-02T03:48:49.550Z,14.83
2018-09-02T03:53:52.701Z,14.82
2018-09-02T03:58:59.594Z,14.77
2018-09-02T04:04:02.810Z,14.82
2018-09-02T04:09:08.038Z,14.84
2018-09-02T04:14:11.447Z,14.86
2018-09-02T04:19:14.906Z,14.92
2018-09-02T04:24:18.722Z,15.06
2018-09-02T04:29:24.438Z,15.07
2018-09-02T04:34:28.068Z,15.02
2018-09-02T04:39:31.246Z,15.01
2018-09-02T04:44:34.422Z,14.99
2018-09-02T04:49:37.676Z,14.88
2018-09-02T04:54:41.326Z,14.90
2018-09-02T04:59:44.583Z,14.83
2018-09-02T05:04:47.728Z,14.80
2018-09-02T05:09:51.040Z,14.74
2018-09-02T05:14:54.475Z,14.79
2018-09-02T05:19:57.743Z,14.87
2018-09-02T05:25:01.108Z,14.90
2018-09-02T05:30:05.059Z,15.04
2018-09-02T05:35:08.513Z,14.98
2018-09-02T05:40:11.712Z,14.99
2018-09-02T05:45:14.942Z,15.12
2018-09-02T05:50:18.121Z,15.18
2018-09-02T05:55:21.498Z,15.32
2018-09-02T06:00:24.841Z,15.35
2018-09-02T06:05:28.038Z,15.29
2018-09-02T06:10:31.246Z,15.43
2018-09-02T06:15:34.540Z,15.54
2018-09-02T06:20:37.786Z,15.56
2018-09-02T06:25:42.063Z,15.70
2018-09-02T06:30:45.291Z,15.60
2018-09-02T06:35:48.487Z,15.72
2018-09-02T06:40:52.182Z,15.84
2018-09-02T06:45:55.481Z,16.04
2018-09-02T06:50:58.895Z,16.14
2018-09-02T06:56:02.582Z,16.22
2018-09-02T07:01:05.879Z,16.32
2018-09-02T07:06:09.084Z,16.86
2018-09-02T07:11:12.265Z,16.80
2018-09-02T07:16:15.498Z,17.26
2018-09-02T07:21:19.352Z,17.54
2018-09-02T07:26:22.690Z,17.46
2018-09-02T07:31:26.021Z,17.20
2018-09-02T07:36:29.291Z,16.89
2018-09-02T07:41:32.534Z,17.20
2018-09-02T07:46:35.768Z,17.55
2018-09-02T07:51:38.981Z,17.82
2018-09-02T07:56:42.221Z,17.83
2018-09-02T08:01:45.479Z,17.90
2018-09-02T08:06:48.688Z,17.61
2018-09-02T08:11:52.389Z,17.64
2018-09-02T08:16:55.705Z,17.73
2018-09-02T08:21:59.259Z,18.07
2018-09-02T08:27:02.638Z,18.25
2018-09-02T08:32:05.904Z,18.35
2018-09-02T08:37:09.303Z,18.22
2018-09-02T08:42:12.608Z,17.91
2018-09-02T08:47:16.018Z,17.73
2018-09-02T08:52:19.234Z,17.73
2018-09-02T08:57:22.466Z,17.68
2018-09-02T09:02:25.679Z,17.46
2018-09-02T09:07:29.802Z,17.54
2018-09-02T09:12:32.999Z,17.56
2018-09-02T09:17:37.942Z,17.46
2018-09-02T09:22:41.504Z,17.42
2018-09-02T09:27:44.819Z,17.31
2018-09-02T09:32:48.085Z,17.33
2018-09-02T09:37:51.298Z,17.37
2018-09-02T09:42:54.603Z,17.40
2018-09-02T09:47:57.792Z,17.52
2018-09-02T09:53:01.064Z,17.47
2018-09-02T09:58:04.293Z,17.41
2018-09-02T10:03:07.802Z,17.32
2018-09-02T10:08:11.238Z,17.47
2018-09-02T10:13:14.474Z,17.66
2018-09-02T10:18:17.797Z,17.87
2018-09-02T10:23:20.989Z,17.98
2018-09-02T10:28:24.252Z,18.28
2018-09-02T10:33:27.575Z,18.38
2018-09-02T10:38:30.734Z,18.32
2018-09-02T10:43:33.968Z,19.02
2018-09-02T10:48:42.739Z,19.33
2018-09-02T10:53:46.258Z,19.46
2018-09-02T10:58:50.294Z,19.38
2018-09-02T11:03:53.466Z,19.37
2018-09-02T11:08:56.662Z,19.20
2018-09-02T11:14:03.071Z,19.26
2018-09-02T11:19:06.454Z,19.12
2018-09-02T11:24:10.076Z,19.06
2018-09-02T11:29:13.337Z,19.00
2018-09-02T11:34:16.772Z,18.89
2018-09-02T11:39:19.982Z,18.99
2018-09-02T11:44:23.278Z,19.58
2018-09-02T11:49:26.913Z,20.70
2018-09-02T11:54:30.126Z,21.52
2018-09-02T11:59:33.423Z,21.07
2018-09-02T12:04:36.724Z,20.61
2018-09-02T12:09:40.241Z,20.03
2018-09-02T12:14:43.457Z,19.86
2018-09-02T12:19:47.352Z,19.59
2018-09-02T12:24:50.565Z,19.54
2018-09-02T12:29:53.834Z,19.93
2018-09-02T12:34:56.998Z,20.63
2018-09-02T12:40:00.344Z,21.13
2018-09-02T12:45:04.156Z,21.50
2018-09-02T12:50:07.528Z,21.60
2018-09-02T12:55:11.157Z,21.30
2018-09-02T13:00:14.535Z,20.85
2018-09-02T13:05:17.737Z,20.63
2018-09-02T13:10:20.898Z,20.73
2018-09-02T13:15:24.235Z,20.78
2018-09-02T13:20:27.421Z,21.08
2018-09-02T13:25:30.678Z,21.77
2018-09-02T13:30:34.354Z,22.23
2018-09-02T13:35:37.986Z,22.39
2018-09-02T13:40:41.413Z,22.49
2018-09-02T13:45:44.880Z,22.44
2018-09-02T13:50:48.123Z,21.97
2018-09-02T13:55:51.501Z,21.82
2018-09-02T14:05:56.997Z,21.95
2018-09-02T14:11:00.550Z,22.06
2018-09-02T14:16:04.195Z,22.08
2018-09-02T14:21:07.929Z,22.24
2018-09-02T14:26:11.355Z,22.42
2018-09-02T14:36:24.142Z,22.62
2018-09-02T14:41:27.332Z,22.73
2018-09-02T14:46:30.784Z,22.83
2018-09-02T14:51:34.321Z,23.06
2018-09-02T14:56:37.727Z,23.09
2018-09-02T15:01:40.991Z,23.03
2018-09-02T15:06:44.302Z,22.96
2018-09-02T15:11:47.551Z,22.98
2018-09-02T15:16:50.730Z,23.00
2018-09-02T15:22:05.103Z,22.92
2018-09-02T15:27:09.604Z,22.92
2018-09-02T15:32:12.861Z,23.11
2018-09-02T15:37:16.094Z,23.30
2018-09-02T15:42:19.375Z,23.49
2018-09-02T15:47:22.682Z,23.62
2018-09-02T15:52:25.967Z,23.58
2018-09-02T15:57:29.240Z,23.50
2018-09-02T16:02:32.732Z,23.54
2018-09-02T16:07:36.194Z,23.34
2018-09-02T16:12:39.435Z,23.28
2018-09-02T16:17:42.760Z,23.29
2018-09-02T16:22:45.979Z,23.38
2018-09-02T16:27:49.803Z,23.25
2018-09-02T16:32:53.296Z,23.17
2018-09-02T16:37:56.525Z,23.15
2018-09-02T16:42:59.833Z,23.01
2018-09-02T16:53:29.453Z,22.70
